sensor_id;sensor_type;location;lat;lon;timestamp;P1;durP1;ratioP1;P2;durP2;ratioP2
15218;SDS011;15623;53.986;11.676;2022-08-25T00:05:57;12.93;;;9.80;;
15218;SDS011;15623;53.986;11.676;2022-08-25T00:08:29;11.63;;;9.75;;
15218;SDS011;15623;53.986;11.676;2022-08-25T00:11:11;10.43;;;9.43;;
15218;SDS011;15623;53.986;11.676;2022-08-25T00:13:58;11.57;;;10.52;;
15218;SDS011;15623;53.986;11.676;2022-08-25T00:16:40;14.73;;;10.75;;
15218;SDS011;15623;53.986;11.676;2022-08-25T00:19:47;13.73;;;11.02;;
15218;SDS011;15623;53.986;11.676;2022-08-25T00:37:18;17.63;;;15.57;;
15218;SDS011;15623;53.986;11.676;2022-08-25T00:39:50;20.33;;;16.23;;
15218;SDS011;15623;53.986;11.676;2022-08-25T00:42:35;21.30;;;17.63;;
15218;SDS011;15623;53.986;11.676;2022-08-25T00:45:21;23.92;;;17.80;;
15218;SDS011;15623;53.986;11.676;2022-08-25T00:48:04;24.60;;;18.35;;
15218;SDS011;15623;53.986;11.676;2022-08-25T00:51:02;25.15;;;17.90;;
15218;SDS011;15623;53.986;11.676;2022-08-25T02:02:01;89.63;;;25.17;;
15218;SDS011;15623;53.986;11.676;2022-08-25T02:04:37;201.30;;;27.33;;
15218;SDS011;15623;53.986;11.676;2022-08-25T02:07:13;181.18;;;27.00;;
15218;SDS011;15623;53.986;11.676;2022-08-25T02:09:44;197.90;;;25.85;;
15218;SDS011;15623;53.986;11.676;2022-08-25T02:12:14;148.32;;;25.70;;
15218;SDS011;15623;53.986;11.676;2022-08-25T02:14:55;90.50;;;23.38;;
15218;SDS011;15623;53.986;11.676;2022-08-25T02:17:37;86.15;;;21.83;;
15218;SDS011;15623;53.986;11.676;2022-08-25T02:20:12;136.75;;;23.48;;
15218;SDS011;15623;53.986;11.676;2022-08-25T02:23:02;146.07;;;22.98;;
15218;SDS011;15623;53.986;11.676;2022-08-25T02:25:37;129.95;;;21.40;;
15218;SDS011;15623;53.986;11.676;2022-08-25T02:28:12;206.23;;;27.10;;
15218;SDS011;15623;53.986;11.676;2022-08-25T02:30:46;166.85;;;24.50;;
15218;SDS011;15623;53.986;11.676;2022-08-25T02:33:19;200.20;;;26.10;;
15218;SDS011;15623;53.986;11.676;2022-08-25T02:35:47;131.65;;;26.20;;
15218;SDS011;15623;53.986;11.676;2022-08-25T02:38:16;137.73;;;25.70;;
15218;SDS011;15623;53.986;11.676;2022-08-25T02:40:52;87.40;;;24.48;;
15218;SDS011;15623;53.986;11.676;2022-08-25T02:43:30;149.38;;;25.58;;
15218;SDS011;15623;53.986;11.676;2022-08-25T02:45:58;146.40;;;26.10;;
15218;SDS011;15623;53.986;11.676;2022-08-25T02:48:45;148.40;;;26.10;;
15218;SDS011;15623;53.986;11.676;2022-08-25T02:51:18;160.18;;;23.60;;
15218;SDS011;15623;53.986;11.676;2022-08-25T02:53:46;182.43;;;22.27;;
15218;SDS011;15623;53.986;11.676;2022-08-25T02:56:16;186.30;;;22.73;;
15218;SDS011;15623;53.986;11.676;2022-08-25T02:58:47;167.25;;;22.45;;
15218;SDS011;15623;53.986;11.676;2022-08-25T03:01:14;205.63;;;22.20;;
15218;SDS011;15623;53.986;11.676;2022-08-25T03:03:42;160.88;;;21.20;;
15218;SDS011;15623;53.986;11.676;2022-08-25T03:06:14;116.80;;;19.13;;
15218;SDS011;15623;53.986;11.676;2022-08-25T03:08:44;149.77;;;22.23;;
15218;SDS011;15623;53.986;11.676;2022-08-25T03:11:13;211.50;;;22.20;;
15218;SDS011;15623;53.986;11.676;2022-08-25T03:13:52;75.57;;;18.98;;
15218;SDS011;15623;53.986;11.676;2022-08-25T03:16:20;78.63;;;18.38;;
15218;SDS011;15623;53.986;11.676;2022-08-25T03:18:49;148.55;;;20.10;;
15218;SDS011;15623;53.986;11.676;2022-08-25T03:21:18;138.32;;;21.48;;
15218;SDS011;15623;53.986;11.676;2022-08-25T03:23:45;153.25;;;20.65;;
15218;SDS011;15623;53.986;11.676;2022-08-25T03:26:13;73.32;;;20.33;;
15218;SDS011;15623;53.986;11.676;2022-08-25T03:28:57;62.58;;;19.90;;
15218;SDS011;15623;53.986;11.676;2022-08-25T03:31:29;76.47;;;21.48;;
15218;SDS011;15623;53.986;11.676;2022-08-25T03:33:57;65.65;;;22.15;;
15218;SDS011;15623;53.986;11.676;2022-08-25T03:36:28;37.38;;;20.38;;
15218;SDS011;15623;53.986;11.676;2022-08-25T03:38:56;66.60;;;21.88;;
15218;SDS011;15623;53.986;11.676;2022-08-25T03:41:23;67.57;;;20.63;;
15218;SDS011;15623;53.986;11.676;2022-08-25T03:43:54;44.92;;;19.08;;
15218;SDS011;15623;53.986;11.676;2022-08-25T03:46:22;55.17;;;18.67;;
15218;SDS011;15623;53.986;11.676;2022-08-25T03:48:51;55.40;;;18.98;;
15218;SDS011;15623;53.986;11.676;2022-08-25T03:51:21;56.72;;;18.58;;
15218;SDS011;15623;53.986;11.676;2022-08-25T03:53:53;42.45;;;17.23;;
15218;SDS011;15623;53.986;11.676;2022-08-25T03:56:23;53.15;;;19.05;;
15218;SDS011;15623;53.986;11.676;2022-08-25T03:58:51;45.25;;;17.75;;
15218;SDS011;15623;53.986;11.676;2022-08-25T04:01:27;52.00;;;19.13;;
15218;SDS011;15623;53.986;11.676;2022-08-25T04:10:37;46.47;;;18.33;;
15218;SDS011;15623;53.986;11.676;2022-08-25T04:15:45;60.05;;;19.73;;
15218;SDS011;15623;53.986;11.676;2022-08-25T04:21:14;51.78;;;20.67;;
15218;SDS011;15623;53.986;11.676;2022-08-25T04:23:43;29.67;;;17.70;;
15218;SDS011;15623;53.986;11.676;2022-08-25T04:26:18;36.42;;;18.05;;
15218;SDS011;15623;53.986;11.676;2022-08-25T04:28:47;30.17;;;18.13;;
15218;SDS011;15623;53.986;11.676;2022-08-25T04:31:14;23.23;;;17.55;;
15218;SDS011;15623;53.986;11.676;2022-08-25T04:33:42;30.98;;;17.83;;
15218;SDS011;15623;53.986;11.676;2022-08-25T04:36:10;31.30;;;17.42;;
15218;SDS011;15623;53.986;11.676;2022-08-25T04:38:38;33.95;;;17.67;;
15218;SDS011;15623;53.986;11.676;2022-08-25T04:41:06;22.05;;;16.85;;
15218;SDS011;15623;53.986;11.676;2022-08-25T04:43:40;23.75;;;16.02;;
15218;SDS011;15623;53.986;11.676;2022-08-25T04:46:08;26.38;;;17.15;;
15218;SDS011;15623;53.986;11.676;2022-08-25T04:48:36;21.00;;;16.65;;
15218;SDS011;15623;53.986;11.676;2022-08-25T04:51:10;25.85;;;17.50;;
15218;SDS011;15623;53.986;11.676;2022-08-25T04:53:45;28.67;;;17.63;;
15218;SDS011;15623;53.986;11.676;2022-08-25T04:56:26;28.52;;;17.52;;
15218;SDS011;15623;53.986;11.676;2022-08-25T04:59:02;27.73;;;17.35;;
15218;SDS011;15623;53.986;11.676;2022-08-25T05:01:29;27.27;;;16.95;;
15218;SDS011;15623;53.986;11.676;2022-08-25T05:03:58;27.20;;;16.00;;
15218;SDS011;15623;53.986;11.676;2022-08-25T05:06:27;31.65;;;17.40;;
15218;SDS011;15623;53.986;11.676;2022-08-25T05:09:16;31.02;;;17.02;;
15218;SDS011;15623;53.986;11.676;2022-08-25T05:11:43;24.33;;;16.23;;
15218;SDS011;15623;53.986;11.676;2022-08-25T05:14:20;27.35;;;16.83;;
15218;SDS011;15623;53.986;11.676;2022-08-25T05:16:48;29.88;;;16.52;;
15218;SDS011;15623;53.986;11.676;2022-08-25T05:19:20;25.15;;;16.48;;
15218;SDS011;15623;53.986;11.676;2022-08-25T05:22:03;26.80;;;16.45;;
15218;SDS011;15623;53.986;11.676;2022-08-25T05:24:46;26.45;;;16.98;;
15218;SDS011;15623;53.986;11.676;2022-08-25T05:27:18;31.00;;;18.30;;
15218;SDS011;15623;53.986;11.676;2022-08-25T05:29:57;25.98;;;16.52;;
15218;SDS011;15623;53.986;11.676;2022-08-25T05:32:26;24.25;;;16.42;;
15218;SDS011;15623;53.986;11.676;2022-08-25T05:34:55;24.50;;;17.17;;
15218;SDS011;15623;53.986;11.676;2022-08-25T05:37:26;25.73;;;17.08;;
15218;SDS011;15623;53.986;11.676;2022-08-25T05:39:53;25.55;;;17.55;;
15218;SDS011;15623;53.986;11.676;2022-08-25T05:42:35;25.73;;;17.48;;
15218;SDS011;15623;53.986;11.676;2022-08-25T05:47:53;23.65;;;16.98;;
15218;SDS011;15623;53.986;11.676;2022-08-25T05:50:20;23.30;;;16.05;;
15218;SDS011;15623;53.986;11.676;2022-08-25T05:52:49;23.85;;;16.52;;
15218;SDS011;15623;53.986;11.676;2022-08-25T05:55:25;25.58;;;17.15;;
15218;SDS011;15623;53.986;11.676;2022-08-25T05:58:30;26.17;;;15.70;;
15218;SDS011;15623;53.986;11.676;2022-08-25T06:01:01;24.52;;;15.80;;
15218;SDS011;15623;53.986;11.676;2022-08-25T06:33:19;13.15;;;11.18;;
15218;SDS011;15623;53.986;11.676;2022-08-25T06:35:47;13.30;;;10.73;;
15218;SDS011;15623;53.986;11.676;2022-08-25T06:38:15;12.95;;;10.43;;
15218;SDS011;15623;53.986;11.676;2022-08-25T06:40:52;10.00;;;9.10;;
15218;SDS011;15623;53.986;11.676;2022-08-25T06:43:22;10.25;;;9.02;;
15218;SDS011;15623;53.986;11.676;2022-08-25T06:45:50;9.70;;;8.80;;
15218;SDS011;15623;53.986;11.676;2022-08-25T06:48:20;12.95;;;8.60;;
15218;SDS011;15623;53.986;11.676;2022-08-25T06:50:49;12.55;;;8.43;;
15218;SDS011;15623;53.986;11.676;2022-08-25T06:53:18;9.38;;;8.43;;
15218;SDS011;15623;53.986;11.676;2022-08-25T06:55:54;9.50;;;8.13;;
15218;SDS011;15623;53.986;11.676;2022-08-25T06:58:22;13.25;;;9.23;;
15218;SDS011;15623;53.986;11.676;2022-08-25T07:00:50;10.25;;;8.57;;
15218;SDS011;15623;53.986;11.676;2022-08-25T07:03:18;11.15;;;8.50;;
15218;SDS011;15623;53.986;11.676;2022-08-25T07:06:00;11.30;;;9.00;;
15218;SDS011;15623;53.986;11.676;2022-08-25T07:08:42;9.95;;;9.02;;
15218;SDS011;15623;53.986;11.676;2022-08-25T07:11:09;13.27;;;9.27;;
15218;SDS011;15623;53.986;11.676;2022-08-25T07:13:38;14.07;;;8.25;;
15218;SDS011;15623;53.986;11.676;2022-08-25T07:16:06;10.30;;;8.00;;
15218;SDS011;15623;53.986;11.676;2022-08-25T07:18:35;13.00;;;8.18;;
15218;SDS011;15623;53.986;11.676;2022-08-25T07:21:04;9.50;;;7.35;;
15218;SDS011;15623;53.986;11.676;2022-08-25T07:23:31;12.70;;;7.60;;
15218;SDS011;15623;53.986;11.676;2022-08-25T07:26:05;10.98;;;7.40;;
15218;SDS011;15623;53.986;11.676;2022-08-25T07:28:33;11.50;;;7.30;;
15218;SDS011;15623;53.986;11.676;2022-08-25T07:31:00;10.50;;;7.22;;
15218;SDS011;15623;53.986;11.676;2022-08-25T07:33:28;13.95;;;6.40;;
15218;SDS011;15623;53.986;11.676;2022-08-25T07:35:55;9.38;;;6.38;;
15218;SDS011;15623;53.986;11.676;2022-08-25T07:38:23;8.30;;;6.38;;
15218;SDS011;15623;53.986;11.676;2022-08-25T07:40:50;7.57;;;5.32;;
15218;SDS011;15623;53.986;11.676;2022-08-25T07:43:24;13.48;;;5.57;;
15218;SDS011;15623;53.986;11.676;2022-08-25T07:45:51;8.15;;;5.18;;
15218;SDS011;15623;53.986;11.676;2022-08-25T07:48:18;10.05;;;5.05;;
15218;SDS011;15623;53.986;11.676;2022-08-25T07:50:49;9.32;;;4.80;;
15218;SDS011;15623;53.986;11.676;2022-08-25T08:08:08;11.27;;;4.50;;
15218;SDS011;15623;53.986;11.676;2022-08-25T08:13:49;6.22;;;4.57;;
15218;SDS011;15623;53.986;11.676;2022-08-25T08:16:30;9.07;;;4.20;;
15218;SDS011;15623;53.986;11.676;2022-08-25T08:19:09;7.50;;;4.05;;
15218;SDS011;15623;53.986;11.676;2022-08-25T08:21:42;10.55;;;4.00;;
15218;SDS011;15623;53.986;11.676;2022-08-25T08:24:21;5.90;;;3.95;;
15218;SDS011;15623;53.986;11.676;2022-08-25T08:26:48;7.57;;;4.70;;
15218;SDS011;15623;53.986;11.676;2022-08-25T08:29:15;7.07;;;4.45;;
15218;SDS011;15623;53.986;11.676;2022-08-25T08:31:44;10.25;;;4.72;;
15218;SDS011;15623;53.986;11.676;2022-08-25T08:34:11;6.63;;;4.53;;
15218;SDS011;15623;53.986;11.676;2022-08-25T08:36:39;10.40;;;4.60;;
15218;SDS011;15623;53.986;11.676;2022-08-25T08:39:06;7.68;;;3.90;;
15218;SDS011;15623;53.986;11.676;2022-08-25T08:41:43;9.95;;;4.38;;
15218;SDS011;15623;53.986;11.676;2022-08-25T08:44:31;7.22;;;4.13;;
15218;SDS011;15623;53.986;11.676;2022-08-25T08:47:03;8.82;;;4.38;;
15218;SDS011;15623;53.986;11.676;2022-08-25T08:49:33;5.97;;;3.80;;
15218;SDS011;15623;53.986;11.676;2022-08-25T08:52:04;9.10;;;3.88;;
15218;SDS011;15623;53.986;11.676;2022-08-25T08:54:38;9.82;;;4.07;;
15218;SDS011;15623;53.986;11.676;2022-08-25T08:57:10;7.60;;;4.03;;
15218;SDS011;15623;53.986;11.676;2022-08-25T08:59:47;11.05;;;4.20;;
15218;SDS011;15623;53.986;11.676;2022-08-25T09:02:23;5.43;;;3.60;;
15218;SDS011;15623;53.986;11.676;2022-08-25T09:04:53;6.75;;;3.70;;
15218;SDS011;15623;53.986;11.676;2022-08-25T09:07:25;11.18;;;4.40;;
15218;SDS011;15623;53.986;11.676;2022-08-25T09:09:55;8.55;;;3.95;;
15218;SDS011;15623;53.986;11.676;2022-08-25T09:12:28;8.32;;;3.92;;
15218;SDS011;15623;53.986;11.676;2022-08-25T09:15:03;9.20;;;4.03;;
15218;SDS011;15623;53.986;11.676;2022-08-25T09:17:56;8.25;;;3.30;;
15218;SDS011;15623;53.986;11.676;2022-08-25T09:20:34;6.75;;;3.72;;
15218;SDS011;15623;53.986;11.676;2022-08-25T09:23:06;5.50;;;3.30;;
15218;SDS011;15623;53.986;11.676;2022-08-25T09:25:39;6.07;;;3.42;;
15218;SDS011;15623;53.986;11.676;2022-08-25T09:28:22;6.90;;;3.88;;
15218;SDS011;15623;53.986;11.676;2022-08-25T09:30:52;6.55;;;3.42;;
15218;SDS011;15623;53.986;11.676;2022-08-25T09:33:21;5.45;;;3.15;;
15218;SDS011;15623;53.986;11.676;2022-08-25T09:35:50;5.38;;;3.10;;
15218;SDS011;15623;53.986;11.676;2022-08-25T09:38:17;6.32;;;3.65;;
15218;SDS011;15623;53.986;11.676;2022-08-25T09:40:46;6.07;;;3.78;;
15218;SDS011;15623;53.986;11.676;2022-08-25T09:43:19;11.32;;;3.53;;
15218;SDS011;15623;53.986;11.676;2022-08-25T09:45:48;5.93;;;2.92;;
15218;SDS011;15623;53.986;11.676;2022-08-25T09:48:21;6.97;;;3.30;;
15218;SDS011;15623;53.986;11.676;2022-08-25T09:50:49;5.95;;;3.50;;
15218;SDS011;15623;53.986;11.676;2022-08-25T09:53:19;6.85;;;3.45;;
15218;SDS011;15623;53.986;11.676;2022-08-25T09:55:51;6.85;;;3.40;;
15218;SDS011;15623;53.986;11.676;2022-08-25T09:58:30;3.55;;;3.03;;
15218;SDS011;15623;53.986;11.676;2022-08-25T10:01:03;5.68;;;3.55;;
15218;SDS011;15623;53.986;11.676;2022-08-25T10:03:32;4.65;;;2.97;;
15218;SDS011;15623;53.986;11.676;2022-08-25T10:06:02;5.32;;;3.13;;
15218;SDS011;15623;53.986;11.676;2022-08-25T10:08:33;4.93;;;3.20;;
15218;SDS011;15623;53.986;11.676;2022-08-25T10:11:02;5.88;;;3.17;;
15218;SDS011;15623;53.986;11.676;2022-08-25T10:13:37;3.60;;;3.28;;
15218;SDS011;15623;53.986;11.676;2022-08-25T10:16:09;5.32;;;3.13;;
15218;SDS011;15623;53.986;11.676;2022-08-25T10:18:58;7.10;;;3.30;;
15218;SDS011;15623;53.986;11.676;2022-08-25T10:21:26;5.32;;;3.13;;
15218;SDS011;15623;53.986;11.676;2022-08-25T10:23:53;3.47;;;3.08;;
15218;SDS011;15623;53.986;11.676;2022-08-25T10:26:24;6.13;;;3.17;;
15218;SDS011;15623;53.986;11.676;2022-08-25T10:28:57;3.85;;;3.03;;
15218;SDS011;15623;53.986;11.676;2022-08-25T10:31:32;4.82;;;3.00;;
15218;SDS011;15623;53.986;11.676;2022-08-25T10:34:08;3.92;;;2.70;;
15218;SDS011;15623;53.986;11.676;2022-08-25T10:36:40;3.88;;;2.80;;
15218;SDS011;15623;53.986;11.676;2022-08-25T10:39:16;4.43;;;3.03;;
15218;SDS011;15623;53.986;11.676;2022-08-25T10:41:48;8.10;;;3.30;;
15218;SDS011;15623;53.986;11.676;2022-08-25T10:44:20;3.95;;;2.75;;
15218;SDS011;15623;53.986;11.676;2022-08-25T10:47:20;7.65;;;3.28;;
15218;SDS011;15623;53.986;11.676;2022-08-25T10:49:54;4.22;;;2.70;;
15218;SDS011;15623;53.986;11.676;2022-08-25T10:52:28;3.53;;;2.80;;
15218;SDS011;15623;53.986;11.676;2022-08-25T10:55:00;4.97;;;2.88;;
15218;SDS011;15623;53.986;11.676;2022-08-25T10:57:30;3.70;;;2.97;;
15218;SDS011;15623;53.986;11.676;2022-08-25T11:00:03;6.88;;;3.10;;
15218;SDS011;15623;53.986;11.676;2022-08-25T11:02:36;7.82;;;3.10;;
15218;SDS011;15623;53.986;11.676;2022-08-25T11:05:11;5.63;;;2.90;;
15218;SDS011;15623;53.986;11.676;2022-08-25T11:07:40;5.55;;;3.05;;
15218;SDS011;15623;53.986;11.676;2022-08-25T11:10:10;8.18;;;2.95;;
15218;SDS011;15623;53.986;11.676;2022-08-25T11:12:39;3.05;;;2.75;;
15218;SDS011;15623;53.986;11.676;2022-08-25T11:15:18;3.78;;;2.80;;
15218;SDS011;15623;53.986;11.676;2022-08-25T11:17:47;5.93;;;3.13;;
15218;SDS011;15623;53.986;11.676;2022-08-25T11:20:19;4.78;;;3.17;;
15218;SDS011;15623;53.986;11.676;2022-08-25T11:22:49;5.63;;;3.03;;
15218;SDS011;15623;53.986;11.676;2022-08-25T11:25:18;4.13;;;3.15;;
15218;SDS011;15623;53.986;11.676;2022-08-25T11:27:48;3.72;;;2.88;;
15218;SDS011;15623;53.986;11.676;2022-08-25T11:30:18;4.35;;;2.95;;
15218;SDS011;15623;53.986;11.676;2022-08-25T11:32:47;7.70;;;3.17;;
15218;SDS011;15623;53.986;11.676;2022-08-25T11:35:18;4.90;;;2.90;;
15218;SDS011;15623;53.986;11.676;2022-08-25T11:37:52;4.65;;;2.83;;
15218;SDS011;15623;53.986;11.676;2022-08-25T11:43:12;6.95;;;2.92;;
15218;SDS011;15623;53.986;11.676;2022-08-25T11:45:58;4.43;;;2.92;;
15218;SDS011;15623;53.986;11.676;2022-08-25T11:48:31;6.65;;;3.33;;
15218;SDS011;15623;53.986;11.676;2022-08-25T11:51:02;5.28;;;3.15;;
15218;SDS011;15623;53.986;11.676;2022-08-25T11:53:31;6.43;;;3.70;;
15218;SDS011;15623;53.986;11.676;2022-08-25T11:56:05;5.47;;;3.55;;
15218;SDS011;15623;53.986;11.676;2022-08-25T11:58:41;4.43;;;3.20;;
15218;SDS011;15623;53.986;11.676;2022-08-25T12:01:57;3.50;;;3.00;;
15218;SDS011;15623;53.986;11.676;2022-08-25T12:04:10;3.10;;;2.88;;
15218;SDS011;15623;53.986;11.676;2022-08-25T12:09:22;3.60;;;2.75;;
15218;SDS011;15623;53.986;11.676;2022-08-25T12:14:46;3.63;;;3.25;;
15218;SDS011;15623;53.986;11.676;2022-08-25T12:17:19;5.20;;;3.53;;
15218;SDS011;15623;53.986;11.676;2022-08-25T12:20:01;3.17;;;2.97;;
15218;SDS011;15623;53.986;11.676;2022-08-25T12:22:52;3.90;;;2.80;;
15218;SDS011;15623;53.986;11.676;2022-08-25T12:25:38;5.68;;;3.03;;
15218;SDS011;15623;53.986;11.676;2022-08-25T12:28:16;5.50;;;3.20;;
15218;SDS011;15623;53.986;11.676;2022-08-25T12:30:48;4.25;;;3.40;;
15218;SDS011;15623;53.986;11.676;2022-08-25T12:33:21;5.38;;;3.42;;
15218;SDS011;15623;53.986;11.676;2022-08-25T12:35:59;7.55;;;3.53;;
15218;SDS011;15623;53.986;11.676;2022-08-25T12:38:29;5.90;;;3.60;;
15218;SDS011;15623;53.986;11.676;2022-08-25T12:40:59;5.57;;;3.65;;
15218;SDS011;15623;53.986;11.676;2022-08-25T12:43:29;3.50;;;3.20;;
15218;SDS011;15623;53.986;11.676;2022-08-25T12:51:49;3.78;;;3.20;;
15218;SDS011;15623;53.986;11.676;2022-08-25T12:54:19;9.68;;;3.40;;
15218;SDS011;15623;53.986;11.676;2022-08-25T12:56:51;5.72;;;3.13;;
15218;SDS011;15623;53.986;11.676;2022-08-25T12:59:20;519.50;;;22.98;;
15218;SDS011;15623;53.986;11.676;2022-08-25T13:02:03;4.47;;;2.95;;
15218;SDS011;15623;53.986;11.676;2022-08-25T13:07:39;3.05;;;2.72;;
15218;SDS011;15623;53.986;11.676;2022-08-25T13:10:14;3.85;;;3.08;;
15218;SDS011;15623;53.986;11.676;2022-08-25T13:12:45;3.65;;;2.97;;
15218;SDS011;15623;53.986;11.676;2022-08-25T13:15:15;3.58;;;3.10;;
15218;SDS011;15623;53.986;11.676;2022-08-25T13:17:53;5.25;;;3.30;;
15218;SDS011;15623;53.986;11.676;2022-08-25T13:20:22;4.72;;;3.25;;
15218;SDS011;15623;53.986;11.676;2022-08-25T13:22:52;5.57;;;3.10;;
15218;SDS011;15623;53.986;11.676;2022-08-25T13:25:26;5.78;;;3.10;;
15218;SDS011;15623;53.986;11.676;2022-08-25T13:27:55;2.97;;;2.70;;
15218;SDS011;15623;53.986;11.676;2022-08-25T13:30:24;3.78;;;2.90;;
15218;SDS011;15623;53.986;11.676;2022-08-25T13:32:52;39.05;;;4.32;;
15218;SDS011;15623;53.986;11.676;2022-08-25T13:35:20;5.05;;;2.85;;
15218;SDS011;15623;53.986;11.676;2022-08-25T13:37:47;4.97;;;3.20;;
15218;SDS011;15623;53.986;11.676;2022-08-25T13:40:20;4.47;;;3.10;;
15218;SDS011;15623;53.986;11.676;2022-08-25T13:42:49;5.78;;;3.17;;
15218;SDS011;15623;53.986;11.676;2022-08-25T13:45:17;6.15;;;3.22;;
15218;SDS011;15623;53.986;11.676;2022-08-25T13:47:46;3.90;;;2.90;;
15218;SDS011;15623;53.986;11.676;2022-08-25T13:50:31;7.28;;;3.20;;
15218;SDS011;15623;53.986;11.676;2022-08-25T13:53:09;4.38;;;3.10;;
15218;SDS011;15623;53.986;11.676;2022-08-25T13:55:48;3.90;;;3.15;;
15218;SDS011;15623;53.986;11.676;2022-08-25T13:58:26;4.25;;;3.10;;
15218;SDS011;15623;53.986;11.676;2022-08-25T14:01:06;6.32;;;3.10;;
15218;SDS011;15623;53.986;11.676;2022-08-25T14:03:37;3.45;;;3.00;;
15218;SDS011;15623;53.986;11.676;2022-08-25T14:06:06;6.00;;;3.10;;
15218;SDS011;15623;53.986;11.676;2022-08-25T14:08:44;6.63;;;3.40;;
15218;SDS011;15623;53.986;11.676;2022-08-25T14:11:14;3.88;;;2.90;;
15218;SDS011;15623;53.986;11.676;2022-08-25T14:14:07;4.97;;;2.80;;
15218;SDS011;15623;53.986;11.676;2022-08-25T14:16:37;3.60;;;3.00;;
15218;SDS011;15623;53.986;11.676;2022-08-25T14:19:24;3.72;;;3.00;;
15218;SDS011;15623;53.986;11.676;2022-08-25T14:21:54;3.30;;;3.00;;
15218;SDS011;15623;53.986;11.676;2022-08-25T14:24:27;5.43;;;3.13;;
15218;SDS011;15623;53.986;11.676;2022-08-25T14:30:39;4.63;;;3.33;;
15218;SDS011;15623;53.986;11.676;2022-08-25T14:33:07;9.80;;;3.15;;
15218;SDS011;15623;53.986;11.676;2022-08-25T14:38:18;6.28;;;3.10;;
15218;SDS011;15623;53.986;11.676;2022-08-25T14:41:10;4.90;;;3.60;;
15218;SDS011;15623;53.986;11.676;2022-08-25T14:46:57;19.27;;;4.40;;
15218;SDS011;15623;53.986;11.676;2022-08-25T14:49:28;8.50;;;3.53;;
15218;SDS011;15623;53.986;11.676;2022-08-25T14:51:59;5.40;;;3.30;;
15218;SDS011;15623;53.986;11.676;2022-08-25T14:54:28;6.28;;;3.42;;
15218;SDS011;15623;53.986;11.676;2022-08-25T14:57:03;5.38;;;3.60;;
15218;SDS011;15623;53.986;11.676;2022-08-25T14:59:31;4.47;;;3.95;;
15218;SDS011;15623;53.986;11.676;2022-08-25T15:02:04;9.13;;;3.97;;
15218;SDS011;15623;53.986;11.676;2022-08-25T15:04:33;6.88;;;3.70;;
15218;SDS011;15623;53.986;11.676;2022-08-25T15:07:01;6.00;;;4.07;;
15218;SDS011;15623;53.986;11.676;2022-08-25T15:09:49;9.63;;;4.40;;
15218;SDS011;15623;53.986;11.676;2022-08-25T15:12:16;6.15;;;3.78;;
15218;SDS011;15623;53.986;11.676;2022-08-25T15:14:43;20.60;;;4.25;;
15218;SDS011;15623;53.986;11.676;2022-08-25T15:17:21;30.42;;;4.50;;
15218;SDS011;15623;53.986;11.676;2022-08-25T15:19:49;5.03;;;3.90;;
15218;SDS011;15623;53.986;11.676;2022-08-25T15:22:16;7.22;;;4.10;;
15218;SDS011;15623;53.986;11.676;2022-08-25T15:24:43;8.75;;;4.18;;
15218;SDS011;15623;53.986;11.676;2022-08-25T15:27:20;9.25;;;4.07;;
15218;SDS011;15623;53.986;11.676;2022-08-25T15:29:49;6.13;;;4.13;;
15218;SDS011;15623;53.986;11.676;2022-08-25T15:32:19;6.28;;;3.63;;
15218;SDS011;15623;53.986;11.676;2022-08-25T15:34:47;11.43;;;4.25;;
15218;SDS011;15623;53.986;11.676;2022-08-25T15:37:16;9.60;;;3.85;;
15218;SDS011;15623;53.986;11.676;2022-08-25T15:39:52;5.22;;;3.63;;
15218;SDS011;15623;53.986;11.676;2022-08-25T15:42:27;5.43;;;3.90;;
15218;SDS011;15623;53.986;11.676;2022-08-25T15:44:54;5.10;;;3.60;;
15218;SDS011;15623;53.986;11.676;2022-08-25T15:47:22;5.32;;;3.40;;
15218;SDS011;15623;53.986;11.676;2022-08-25T15:52:56;20.05;;;3.70;;
15218;SDS011;15623;53.986;11.676;2022-08-25T15:55:23;6.97;;;3.88;;
15218;SDS011;15623;53.986;11.676;2022-08-25T15:57:52;6.70;;;3.80;;
15218;SDS011;15623;53.986;11.676;2022-08-25T16:00:22;7.07;;;4.00;;
15218;SDS011;15623;53.986;11.676;2022-08-25T16:02:53;6.60;;;4.03;;
15218;SDS011;15623;53.986;11.676;2022-08-25T16:05:42;6.47;;;3.97;;
15218;SDS011;15623;53.986;11.676;2022-08-25T16:08:30;7.28;;;3.72;;
15218;SDS011;15623;53.986;11.676;2022-08-25T16:11:21;7.95;;;3.80;;
15218;SDS011;15623;53.986;11.676;2022-08-25T16:13:49;6.90;;;3.72;;
15218;SDS011;15623;53.986;11.676;2022-08-25T16:16:18;6.55;;;3.80;;
15218;SDS011;15623;53.986;11.676;2022-08-25T16:18:46;10.57;;;4.18;;
15218;SDS011;15623;53.986;11.676;2022-08-25T16:21:18;8.02;;;3.97;;
15218;SDS011;15623;53.986;11.676;2022-08-25T16:24:00;6.25;;;4.22;;
15218;SDS011;15623;53.986;11.676;2022-08-25T16:26:28;14.60;;;3.88;;
15218;SDS011;15623;53.986;11.676;2022-08-25T16:28:57;4.25;;;3.50;;
15218;SDS011;15623;53.986;11.676;2022-08-25T16:31:25;9.73;;;3.92;;
15218;SDS011;15623;53.986;11.676;2022-08-25T16:33:52;7.50;;;4.18;;
15218;SDS011;15623;53.986;11.676;2022-08-25T16:36:38;8.75;;;3.78;;
15218;SDS011;15623;53.986;11.676;2022-08-25T16:39:08;7.25;;;3.80;;
15218;SDS011;15623;53.986;11.676;2022-08-25T16:41:40;6.53;;;3.83;;
15218;SDS011;15623;53.986;11.676;2022-08-25T16:44:10;8.27;;;3.67;;
15218;SDS011;15623;53.986;11.676;2022-08-25T16:46:38;8.35;;;3.40;;
15218;SDS011;15623;53.986;11.676;2022-08-25T16:49:07;7.07;;;3.72;;
15218;SDS011;15623;53.986;11.676;2022-08-25T16:51:35;9.10;;;3.88;;
15218;SDS011;15623;53.986;11.676;2022-08-25T16:56:44;8.45;;;3.70;;
15218;SDS011;15623;53.986;11.676;2022-08-25T16:59:11;7.88;;;3.83;;
15218;SDS011;15623;53.986;11.676;2022-08-25T17:01:48;4.95;;;3.78;;
15218;SDS011;15623;53.986;11.676;2022-08-25T17:04:16;7.10;;;3.70;;
15218;SDS011;15623;53.986;11.676;2022-08-25T17:06:44;11.73;;;4.20;;
15218;SDS011;15623;53.986;11.676;2022-08-25T17:27:00;7.00;;;4.00;;
15218;SDS011;15623;53.986;11.676;2022-08-25T17:29:28;8.30;;;4.00;;
15218;SDS011;15623;53.986;11.676;2022-08-25T17:31:57;7.97;;;4.10;;
15218;SDS011;15623;53.986;11.676;2022-08-25T17:34:25;5.88;;;3.67;;
15218;SDS011;15623;53.986;11.676;2022-08-25T17:36:53;6.68;;;4.07;;
15218;SDS011;15623;53.986;11.676;2022-08-25T17:39:22;7.35;;;3.78;;
15218;SDS011;15623;53.986;11.676;2022-08-25T17:41:51;7.68;;;3.90;;
15218;SDS011;15623;53.986;11.676;2022-08-25T17:44:28;10.45;;;4.35;;
15218;SDS011;15623;53.986;11.676;2022-08-25T17:47:00;7.82;;;4.30;;
15218;SDS011;15623;53.986;11.676;2022-08-25T17:49:27;6.43;;;3.95;;
15218;SDS011;15623;53.986;11.676;2022-08-25T17:52:13;8.80;;;3.80;;
15218;SDS011;15623;53.986;11.676;2022-08-25T17:54:56;8.88;;;4.47;;
15218;SDS011;15623;53.986;11.676;2022-08-25T17:57:32;8.15;;;4.05;;
15218;SDS011;15623;53.986;11.676;2022-08-25T18:00:27;8.07;;;4.38;;
15218;SDS011;15623;53.986;11.676;2022-08-25T18:03:02;7.68;;;4.30;;
15218;SDS011;15623;53.986;11.676;2022-08-25T18:05:32;11.27;;;4.68;;
15218;SDS011;15623;53.986;11.676;2022-08-25T18:07:59;9.73;;;4.82;;
15218;SDS011;15623;53.986;11.676;2022-08-25T18:10:27;8.73;;;4.78;;
15218;SDS011;15623;53.986;11.676;2022-08-25T18:13:04;6.07;;;4.10;;
15218;SDS011;15623;53.986;11.676;2022-08-25T18:15:33;7.93;;;4.40;;
15218;SDS011;15623;53.986;11.676;2022-08-25T18:18:02;5.53;;;4.07;;